Time;durP1;ratioP1;P1;durP2;ratioP2;P2;SDS_P1;SDS_P2;PMS_P1;PMS_P2;Temp;Humidity;BMP_temperature;BMP_pressure;BME280_temperature;BME280_humidity;BME280_pressure;Samples;Min_cycle;Max_cycle;Signal;HPM_P1;HPM_P2
2021/03/23 00:00:59;;;;;;;5.00;2.67;;;;;;;9.36;67.70;101677.56;5061034;28;20083;-51
2021/03/23 00:03:42;;;;;;;2.60;1.48;;;;;;;9.36;67.88;101670.09;5053740;28;20041;-47
2021/03/23 00:06:12;;;;;;;2.40;1.83;;;;;;;9.38;67.53;101672.53;5071518;28;20477;-48
2021/03/23 00:08:43;;;;;;;2.67;1.85;;;;;;;9.36;67.38;101669.28;5070948;28;20474;-49
2021/03/23 00:11:30;;;;;;;3.87;1.50;;;;;;;9.37;67.46;101665.38;5071576;28;20102;-53
2021/03/23 00:13:59;;;;;;;3.05;1.90;;;;;;;9.38;67.35;101661.47;5070478;28;20040;-52
2021/03/23 00:16:30;;;;;;;4.47;1.83;;;;;;;9.37;67.22;101659.84;5071097;28;20044;-47
2021/03/23 00:18:57;;;;;;;4.20;2.03;;;;;;;9.35;67.29;101665.69;5063717;28;20143;-48
2021/03/23 00:21:25;;;;;;;2.78;1.30;;;;;;;9.34;67.39;101658.53;5051465;28;20080;-50
2021/03/23 00:23:52;;;;;;;3.63;1.60;;;;;;;9.31;67.29;101656.41;5051560;28;20041;-50
2021/03/23 00:26:20;;;;;;;2.38;1.48;;;;;;;9.33;67.19;101658.84;5049606;28;20049;-48
2021/03/23 00:28:48;;;;;;;4.07;1.40;;;;;;;9.29;67.21;101655.09;5055122;28;20036;-47
2021/03/23 00:31:17;;;;;;;2.05;1.45;;;;;;;9.26;67.19;101650.19;5070465;28;20049;-47
2021/03/23 00:34:00;;;;;;;2.28;1.33;;;;;;;9.25;67.21;101651.31;5070537;28;20127;-51
2021/03/23 00:36:30;;;;;;;2.00;1.03;;;;;;;9.27;67.07;101643.50;5071146;28;20056;-48
2021/03/23 00:38:57;;;;;;;2.08;1.20;;;;;;;9.28;67.08;101639.63;5070129;28;20464;-50
2021/03/23 00:41:23;;;;;;;3.15;1.30;;;;;;;9.26;67.17;101641.91;5061834;28;20133;-50
2021/03/23 00:43:51;;;;;;;1.13;1.02;;;;;;;9.24;66.86;101635.88;5069144;28;20078;-49
2021/03/23 00:46:18;;;;;;;1.10;1.00;;;;;;;9.23;66.94;101634.22;5070518;28;20415;-49
2021/03/23 00:48:44;;;;;;;4.97;1.30;;;;;;;9.24;66.85;101633.91;5069948;28;20045;-49
2021/03/23 00:51:11;;;;;;;2.53;1.15;;;;;;;9.23;66.68;101637.81;5070277;28;20080;-49
2021/03/23 00:53:37;;;;;;;2.65;1.33;;;;;;;9.22;66.68;101627.06;5070896;28;20068;-51
2021/03/23 00:56:04;;;;;;;1.92;0.70;;;;;;;9.21;66.89;101628.22;5071367;28;20131;-48
2021/03/23 00:58:30;;;;;;;1.13;0.95;;;;;;;9.19;66.69;101632.09;5069160;28;20044;-47
2021/03/23 01:00:57;;;;;;;1.52;0.75;;;;;;;9.18;66.67;101627.72;5057327;28;20066;-49
2021/03/23 01:03:23;;;;;;;1.75;1.02;;;;;;;9.15;66.68;101631.09;5072754;28;20106;-47
2021/03/23 01:05:50;;;;;;;0.95;0.68;;;;;;;9.14;66.63;101623.13;5074653;28;20448;-48
2021/03/23 01:08:17;;;;;;;2.40;1.75;;;;;;;9.15;66.42;101617.28;5074698;28;20040;-46
2021/03/23 01:10:44;;;;;;;1.90;0.90;;;;;;;9.15;66.39;101622.81;5074254;28;20068;-51
2021/03/23 01:13:11;;;;;;;1.13;1.02;;;;;;;9.16;66.73;101616.13;5073353;28;20724;-46
2021/03/23 01:15:38;;;;;;;0.90;0.70;;;;;;;9.15;66.49;101616.47;5071685;28;20562;-46
2021/03/23 01:18:05;;;;;;;1.80;0.98;;;;;;;9.15;66.44;101611.75;5074074;28;20048;-47
2021/03/23 01:20:32;;;;;;;2.05;0.68;;;;;;;9.14;66.59;101604.59;5073538;28;20102;-49
2021/03/23 01:22:59;;;;;;;0.98;0.90;;;;;;;9.14;66.65;101610.13;5074306;28;20064;-47
2021/03/23 01:25:26;;;;;;;1.50;0.80;;;;;;;9.13;66.58;101605.72;5067474;28;20477;-48
2021/03/23 01:27:52;;;;;;;2.30;0.70;;;;;;;9.12;66.63;101615.16;5074623;28;20486;-48
2021/03/23 01:30:22;;;;;;;1.08;0.68;;;;;;;9.08;66.65;101610.56;5073841;28;20446;-46
2021/03/23 01:32:49;;;;;;;2.58;0.95;;;;;;;9.07;66.75;101600.66;5073442;28;20071;-51
2021/03/23 01:35:16;;;;;;;0.57;0.47;;;;;;;9.06;66.77;101608.09;5072650;28;20057;-48
2021/03/23 01:37:43;;;;;;;3.25;0.90;;;;;;;9.04;66.74;101602.09;5070734;28;20048;-51
2021/03/23 01:40:12;;;;;;;6.93;2.03;;;;;;;9.03;66.75;101607.91;5073084;28;20040;-48
2021/03/23 01:42:44;;;;;;;2.47;1.35;;;;;;;9.01;66.77;101604.66;5073534;28;20063;-47
2021/03/23 01:45:22;;;;;;;2.28;0.63;;;;;;;9.01;66.78;101596.38;5073347;28;20048;-48
2021/03/23 01:47:50;;;;;;;2.15;0.90;;;;;;;9.03;67.00;101599.63;5073503;28;20060;-46
2021/03/23 01:50:18;;;;;;;1.98;0.73;;;;;;;9.01;66.82;101596.38;5072653;28;20041;-46
2021/03/23 01:52:49;;;;;;;1.02;0.70;;;;;;;8.99;66.92;101591.19;5073945;28;20056;-48
2021/03/23 01:55:15;;;;;;;15.63;2.58;;;;;;;8.99;67.26;101577.38;5073215;28;20053;-48
2021/03/23 01:57:46;;;;;;;0.95;0.63;;;;;;;8.99;67.15;101580.13;5073679;28;20127;-46
2021/03/23 02:00:12;;;;;;;3.13;0.88;;;;;;;9.00;67.16;101580.94;5071839;28;20119;-47
2021/03/23 02:02:39;;;;;;;0.90;0.50;;;;;;;9.00;66.99;101576.22;5072011;28;20058;-47
2021/03/23 02:05:17;;;;;;;1.73;0.85;;;;;;;9.00;67.02;101573.44;5073709;28;20076;-48
2021/03/23 02:07:44;;;;;;;1.08;0.80;;;;;;;9.01;67.10;101566.81;5073388;28;20052;-47
2021/03/23 02:10:11;;;;;;;2.70;0.93;;;;;;;9.01;67.05;101564.03;5071902;28;20845;-48
2021/03/23 02:12:37;;;;;;;0.60;0.60;;;;;;;9.01;66.90;101564.03;5072939;28;20044;-52
2021/03/23 02:15:06;;;;;;;2.40;0.90;;;;;;;9.02;67.01;101557.41;5072919;28;20052;-47
2021/03/23 02:17:35;;;;;;;1.98;0.70;;;;;;;9.00;66.81;101556.09;5073336;28;20568;-48
2021/03/23 02:20:18;;;;;;;2.13;0.80;;;;;;;8.96;67.07;101550.38;5073240;28;20402;-47
2021/03/23 02:22:48;;;;;;;3.35;0.82;;;;;;;8.98;66.86;101553.63;5052151;28;20563;-48
2021/03/23 02:25:23;;;;;;;3.83;0.68;;;;;;;8.95;66.95;101548.72;5072541;28;20451;-47
2021/03/23 02:27:51;;;;;;;1.50;0.80;;;;;;;8.94;66.80;101535.25;5073272;28;20135;-47
2021/03/23 02:30:28;;;;;;;1.30;0.85;;;;;;;8.93;66.73;101536.38;5072651;28;20044;-47
2021/03/23 02:32:54;;;;;;;2.80;1.00;;;;;;;8.91;66.75;101542.22;5072808;28;20127;-47
2021/03/23 02:35:29;;;;;;;0.65;0.60;;;;;;;8.91;66.49;101528.41;5072067;28;20056;-47
2021/03/23 02:37:56;;;;;;;4.00;0.70;;;;;;;8.91;66.63;101530.34;5071341;28;20051;-48
2021/03/23 02:40:23;;;;;;;1.40;0.65;;;;;;;8.93;66.71;101528.09;5072246;28;20125;-46
2021/03/23 02:42:50;;;;;;;2.85;0.70;;;;;;;8.93;66.74;101522.56;5071781;28;20090;-48
2021/03/23 02:45:17;;;;;;;4.00;1.70;;;;;;;8.92;66.73;101530.03;5073112;28;20076;-48
2021/03/23 02:47:43;;;;;;;4.07;0.65;;;;;;;8.91;66.70;101520.13;5068520;28;20032;-47
2021/03/23 02:50:10;;;;;;;0.93;0.60;;;;;;;8.91;66.61;101509.06;5071955;28;20401;-49
2021/03/23 02:52:36;;;;;;;1.70;0.90;;;;;;;8.90;66.49;101515.72;5073021;28;20060;-48
2021/03/23 02:55:04;;;;;;;2.25;0.60;;;;;;;8.90;66.43;101515.72;5073037;28;20040;-47
2021/03/23 02:57:31;;;;;;;1.25;0.77;;;;;;;8.87;66.50;101507.28;5072762;28;20051;-47
2021/03/23 02:59:57;;;;;;;3.50;0.75;;;;;;;8.84;66.50;101500.41;5069300;28;20051;-48
2021/03/23 03:02:23;;;;;;;2.80;0.80;;;;;;;8.85;66.61;101510.34;5070033;28;20082;-50
2021/03/23 03:04:50;;;;;;;2.95;0.90;;;;;;;8.86;66.58;101500.94;5072188;28;20452;-47
2021/03/23 03:07:16;;;;;;;3.33;0.77;;;;;;;8.87;66.55;101502.53;5072207;28;20139;-49
2021/03/23 03:09:43;;;;;;;4.97;0.90;;;;;;;8.88;66.27;101497.84;5071986;28;20102;-48
2021/03/23 03:12:09;;;;;;;0.82;0.70;;;;;;;8.90;66.53;101490.88;5071124;28;20553;-48
2021/03/23 03:14:36;;;;;;;2.25;0.63;;;;;;;8.91;66.39;101492.50;5072383;28;20509;-47
2021/03/23 03:17:05;;;;;;;0.75;0.70;;;;;;;8.92;66.22;101493.34;5072019;28;20400;-50
2021/03/23 03:19:31;;;;;;;7.35;1.00;;;;;;;8.91;66.53;101487.00;5071739;28;20109;-48
2021/03/23 03:21:58;;;;;;;3.42;0.80;;;;;;;8.91;66.63;101475.94;5072323;28;20097;-47
2021/03/23 03:24:24;;;;;;;2.45;1.00;;;;;;;8.91;66.56;101481.47;5050630;28;20075;-47
2021/03/23 03:26:50;;;;;;;2.25;0.57;;;;;;;8.91;66.50;101475.94;5052397;28;20045;-47
2021/03/23 03:29:17;;;;;;;1.30;0.68;;;;;;;8.92;66.38;101476.75;5059879;28;20122;-48
2021/03/23 03:31:44;;;;;;;0.77;0.68;;;;;;;8.91;66.24;101473.19;5071101;28;20064;-50
2021/03/23 03:34:10;;;;;;;1.17;0.57;;;;;;;8.93;66.29;101476.44;5070519;28;20044;-50
2021/03/23 03:36:37;;;;;;;1.27;0.60;;;;;;;8.91;66.11;101469.59;5034226;28;20041;-48
2021/03/23 03:39:04;;;;;;;0.98;0.60;;;;;;;8.90;66.13;101465.19;5050038;28;20079;-48
2021/03/23 03:41:31;;;;;;;3.53;0.77;;;;;;;8.88;65.99;101465.53;5035140;28;20103;-47
2021/03/23 03:43:58;;;;;;;3.95;0.70;;;;;;;8.87;65.72;101471.38;5034045;28;20053;-52
2021/03/23 03:46:24;;;;;;;0.68;0.50;;;;;;;8.89;65.92;101466.34;5051827;28;20052;-51
2021/03/23 03:48:51;;;;;;;1.13;0.40;;;;;;;8.92;65.78;101469.25;5049212;28;20045;-49
2021/03/23 03:51:17;;;;;;;1.25;0.50;;;;;;;8.92;65.85;101479.53;5033626;28;20094;-47
2021/03/23 03:53:44;;;;;;;0.80;0.57;;;;;;;8.90;65.88;101471.53;5051873;28;20052;-48
2021/03/23 03:56:10;;;;;;;2.28;0.50;;;;;;;8.90;65.83;101465.19;5049364;28;20049;-49
2021/03/23 03:58:37;;;;;;;0.55;0.55;;;;;;;8.90;65.70;101465.19;5030358;28;20045;-48
2021/03/23 04:01:03;;;;;;;0.88;0.52;;;;;;;8.89;65.78;101461.66;5029599;28;20155;-47
2021/03/23 04:03:30;;;;;;;1.55;0.57;;;;;;;8.88;65.80;101460.00;5033098;28;20482;-50
2021/03/23 04:05:59;;;;;;;1.20;0.60;;;;;;;8.87;65.47;101457.56;5051764;28;20041;-47
2021/03/23 04:08:31;;;;;;;3.03;0.45;;;;;;;8.85;65.39;101460.63;5051193;28;20124;-56
2021/03/23 04:11:01;;;;;;;0.75;0.40;;;;;;;8.82;65.16;101461.25;5043663;28;20068;-47
2021/03/23 04:13:27;;;;;;;2.33;0.50;;;;;;;8.81;65.13;101459.66;5056228;28;20441;-48
2021/03/23 04:15:54;;;;;;;0.95;0.95;;;;;;;8.78;65.01;101457.50;5071395;28;20080;-47
2021/03/23 04:18:24;;;;;;;0.90;0.30;;;;;;;8.77;64.96;101458.63;5070574;28;20064;-50
2021/03/23 04:20:53;;;;;;;0.90;0.40;;;;;;;8.78;64.97;101462.22;5050854;28;20041;-48
2021/03/23 04:23:22;;;;;;;1.95;0.50;;;;;;;8.79;64.98;101461.09;5051199;28;20049;-47
2021/03/23 04:25:49;;;;;;;0.82;0.32;;;;;;;8.77;65.02;101458.63;5050996;28;20367;-47
2021/03/23 04:28:16;;;;;;;1.02;0.40;;;;;;;8.74;64.66;101459.25;5050457;28;20076;-47
2021/03/23 04:30:42;;;;;;;0.45;0.40;;;;;;;8.72;64.64;101460.72;5057098;28;20068;-48
2021/03/23 04:33:11;;;;;;;2.53;0.60;;;;;;;8.68;64.63;101455.03;5071179;28;20079;-50
2021/03/23 04:35:55;;;;;;;1.13;0.60;;;;;;;8.66;64.50;101446.22;5063871;28;20143;-50
2021/03/23 04:38:25;;;;;;;1.92;0.55;;;;;;;8.65;64.59;101441.03;5074204;28;20123;-50
2021/03/23 04:40:53;;;;;;;1.30;0.40;;;;;;;8.63;64.50;101441.31;5057472;28;20131;-48
2021/03/23 04:43:36;;;;;;;0.90;0.57;;;;;;;8.59;64.32;101443.09;5075380;28;20048;-47
2021/03/23 04:46:03;;;;;;;1.13;0.40;;;;;;;8.58;64.54;101438.69;5075409;28;20051;-47
2021/03/23 04:48:29;;;;;;;1.10;0.45;;;;;;;8.56;64.41;101436.25;5068742;28;20393;-48
2021/03/23 04:50:56;;;;;;;1.63;0.50;;;;;;;8.57;64.51;101445.38;5075109;28;20053;-48
2021/03/23 04:53:26;;;;;;;1.48;0.70;;;;;;;8.55;64.52;101433.81;5074807;28;20044;-47
2021/03/23 04:55:53;;;;;;;1.50;0.55;;;;;;;8.53;64.62;101433.31;5075417;28;20106;-48
2021/03/23 04:58:20;;;;;;;0.60;0.55;;;;;;;8.51;64.72;101432.81;5074462;28;20447;-54
2021/03/23 05:00:47;;;;;;;0.52;0.35;;;;;;;8.47;64.45;101426.31;5074960;28;20075;-48
2021/03/23 05:03:22;;;;;;;1.45;0.40;;;;;;;8.47;64.59;101426.31;5075044;28;20106;-48
2021/03/23 05:05:54;;;;;;;0.55;0.55;;;;;;;8.44;64.60;101435.22;5069772;28;20045;-47
2021/03/23 05:08:20;;;;;;;0.93;0.40;;;;;;;8.42;64.51;101429.16;5074778;28;20076;-48
2021/03/23 05:10:47;;;;;;;1.08;0.50;;;;;;;8.41;64.67;101427.56;5074879;28;20159;-49
2021/03/23 05:13:13;;;;;;;2.28;0.73;;;;;;;8.40;64.37;101423.97;5074578;28;20052;-47
2021/03/23 05:15:39;;;;;;;2.05;0.60;;;;;;;8.45;64.15;101423.84;5073283;28;20367;-48
2021/03/23 05:18:06;;;;;;;1.00;0.45;;;;;;;8.45;64.22;101429.38;5074082;28;20123;-47
2021/03/23 05:20:32;;;;;;;0.60;0.40;;;;;;;8.45;64.07;101417.50;5074668;28;20101;-46
2021/03/23 05:22:59;;;;;;;1.55;0.73;;;;;;;8.45;64.24;101417.50;5074453;28;20041;-48
2021/03/23 05:25:25;;;;;;;0.68;0.52;;;;;;;8.42;64.11;101412.63;5072677;28;20048;-47
2021/03/23 05:27:51;;;;;;;0.57;0.52;;;;;;;8.41;64.43;101413.75;5072551;28;20517;-51
2021/03/23 05:30:18;;;;;;;2.47;0.60;;;;;;;8.42;64.16;101412.63;5074329;28;20067;-49
2021/03/23 05:32:45;;;;;;;2.65;0.60;;;;;;;8.44;64.41;101410.38;5073970;28;20094;-47
2021/03/23 05:35:13;;;;;;;1.55;0.80;;;;;;;8.44;64.23;101396.59;5064598;28;20103;-50
2021/03/23 05:37:48;;;;;;;1.17;0.80;;;;;;;8.40;64.56;101420.41;5054243;28;20130;-49
2021/03/23 05:40:43;;;;;;;2.47;1.10;;;;;;;8.36;64.28;101402.84;5073395;28;20527;-48
2021/03/23 05:43:31;;;;;;;0.90;0.73;;;;;;;8.38;64.23;101403.34;5014252;28;20455;-47
2021/03/23 05:46:12;;;;;;;1.38;0.82;;;;;;;8.39;64.30;101402.22;5034411;28;20096;-47
2021/03/23 05:48:54;;;;;;;1.80;0.97;;;;;;;8.37;64.28;101405.28;5048617;28;20321;-46
2021/03/23 05:51:30;;;;;;;1.77;0.70;;;;;;;8.38;64.37;101392.31;5053877;28;20609;-49
2021/03/23 05:54:15;;;;;;;5.10;1.00;;;;;;;8.35;64.26;101395.69;5053612;28;20612;-49
2021/03/23 05:56:44;;;;;;;2.30;0.85;;;;;;;8.36;64.48;101384.38;5068466;28;20547;-47
2021/03/23 05:59:33;;;;;;;3.50;0.98;;;;;;;8.36;64.43;101381.59;5073893;28;20068;-49
2021/03/23 06:02:19;;;;;;;0.85;0.85;;;;;;;8.35;64.36;101385.47;5073210;28;20076;-47
2021/03/23 06:05:22;;;;;;;2.08;0.80;;;;;;;8.35;64.45;101381.91;5061532;28;20041;-49
2021/03/23 06:08:17;;;;;;;2.10;0.70;;;;;;;8.35;64.62;101382.72;5024165;28;20065;-47
2021/03/23 06:10:45;;;;;;;1.35;0.95;;;;;;;8.35;64.58;101376.38;5026264;28;20041;-49
2021/03/23 06:13:35;;;;;;;1.63;1.00;;;;;;;8.35;64.39;101368.09;5064399;28;20091;-48
2021/03/23 06:16:14;;;;;;;4.32;1.08;;;;;;;8.37;64.51;101355.63;5053033;28;20111;-47
2021/03/23 06:19:02;;;;;;;1.77;1.15;;;;;;;8.39;64.29;101361.63;5052748;28;20052;-50
2021/03/23 06:21:39;;;;;;;2.65;1.58;;;;;;;8.41;64.35;101370.44;5052640;28;20059;-49
2021/03/23 06:24:18;;;;;;;1.92;1.05;;;;;;;8.40;64.36;101365.22;5052509;28;20045;-48
2021/03/23 06:26:52;;;;;;;2.35;1.42;;;;;;;8.41;64.40;101373.19;5053139;28;20102;-49
2021/03/23 06:29:27;;;;;;;1.98;1.58;;;;;;;8.38;64.23;101367.47;5056839;28;20056;-47
2021/03/23 06:32:25;;;;;;;2.03;1.23;;;;;;;8.38;64.07;101364.72;5072724;28;20045;-48
2021/03/23 06:34:55;;;;;;;1.58;1.20;;;;;;;8.39;64.28;101364.41;5066528;28;20113;-48
2021/03/23 06:37:28;;;;;;;3.03;1.15;;;;;;;8.41;64.22;101372.38;5073039;28;20136;-49
2021/03/23 06:39:55;;;;;;;1.75;1.45;;;;;;;8.42;64.20;101357.44;5063022;28;20037;-50
2021/03/23 06:42:35;;;;;;;3.13;1.40;;;;;;;8.40;64.15;101366.03;5019619;28;20116;-47
2021/03/23 06:45:23;;;;;;;3.30;1.40;;;;;;;8.40;64.14;101363.28;5060386;28;20110;-48
2021/03/23 06:47:51;;;;;;;2.63;1.35;;;;;;;8.43;64.06;101354.38;5057046;28;20576;-47
2021/03/23 06:50:26;;;;;;;1.60;1.25;;;;;;;8.44;64.09;101349.66;5052643;28;20041;-47
2021/03/23 06:53:12;;;;;;;5.30;1.73;;;;;;;8.46;64.18;101339.13;5035139;28;20053;-50
2021/03/23 06:55:41;;;;;;;2.88;1.25;;;;;;;8.46;64.07;101348.22;5070756;28;20105;-50
2021/03/23 06:58:26;;;;;;;3.85;1.30;;;;;;;8.45;63.78;101343.81;5072898;28;20128;-47
2021/03/23 07:01:13;;;;;;;1.42;1.33;;;;;;;8.44;63.90;101341.41;5071584;28;20044;-50
2021/03/23 07:03:41;;;;;;;7.00;1.63;;;;;;;8.46;64.08;101333.59;5054475;28;20052;-47
2021/03/23 07:06:24;;;;;;;2.85;1.30;;;;;;;8.48;63.72;101323.06;5059357;28;20049;-50
2021/03/23 07:09:26;;;;;;;2.10;1.70;;;;;;;8.52;63.98;101318.56;5052441;28;20048;-50
2021/03/23 07:12:01;;;;;;;1.88;1.65;;;;;;;8.50;64.07;101321.59;5052314;28;20049;-51
2021/03/23 07:14:38;;;;;;;2.42;1.70;;;;;;;8.50;64.30;101316.09;5061024;28;20048;-51
2021/03/23 07:17:18;;;;;;;2.15;1.50;;;;;;;8.53;64.07;101314.63;5063463;28;20045;-50
2021/03/23 07:19:52;;;;;;;2.25;1.50;;;;;;;8.55;64.15;101312.41;5051599;28;20076;-49
2021/03/23 07:22:40;;;;;;;2.00;1.40;;;;;;;8.57;64.06;101310.13;5062168;28;20497;-48
2021/03/23 07:25:43;;;;;;;2.95;1.83;;;;;;;8.59;64.11;101302.34;5065538;28;20436;-48
2021/03/23 07:28:12;;;;;;;4.30;2.00;;;;;;;8.62;64.10;101306.41;5072228;28;20036;-51
2021/03/23 07:30:44;;;;;;;5.10;2.35;;;;;;;8.60;64.02;101305.91;5072115;28;20060;-50
2021/03/23 07:33:19;;;;;;;1.70;1.40;;;;;;;8.60;64.11;101309.50;5072119;28;20131;-48
2021/03/23 07:35:49;;;;;;;1.30;1.20;;;;;;;8.61;63.78;101300.06;5071366;28;20056;-50
2021/03/23 07:38:40;;;;;;;5.57;1.58;;;;;;;8.62;64.00;101298.94;5060562;28;20044;-50
2021/03/23 07:41:21;;;;;;;2.58;1.90;;;;;;;8.63;63.72;101297.00;5051774;28;20045;-52
2021/03/23 07:44:03;;;;;;;2.20;1.40;;;;;;;8.63;63.63;101292.28;5036616;28;20044;-49
2021/03/23 07:46:51;;;;;;;3.25;1.38;;;;;;;8.63;63.34;101303.31;5036153;28;20107;-48
2021/03/23 07:49:29;;;;;;;3.28;1.40;;;;;;;8.66;63.61;101291.63;5033650;28;20139;-51
2021/03/23 07:51:59;;;;;;;5.70;1.42;;;;;;;8.64;63.50;101293.09;5050913;28;20577;-49
2021/03/23 07:54:34;;;;;;;2.05;1.60;;;;;;;8.63;63.43;101285.97;5048842;28;20045;-50
2021/03/23 07:57:19;;;;;;;19.83;2.97;;;;;;;8.65;63.31;101286.44;5032882;28;20120;-49
2021/03/23 08:00:01;;;;;;;7.00;3.17;;;;;;;8.67;63.45;101285.00;5049745;28;20083;-51
2021/03/23 08:02:55;;;;;;;3.10;1.88;;;;;;;8.68;63.17;101289.41;5044235;28;20048;-48
2021/03/23 08:05:51;;;;;;;3.60;2.38;;;;;;;8.64;62.73;101282.06;5047158;28;20048;-49
2021/03/23 08:08:39;;;;;;;6.45;2.70;;;;;;;8.64;62.87;101273.78;5028607;28;20053;-51
2021/03/23 08:11:14;;;;;;;4.22;1.67;;;;;;;8.65;63.18;101284.50;5034615;28;20100;-50
2021/03/23 08:13:56;;;;;;;2.80;1.55;;;;;;;8.66;62.78;101291.63;5057699;28;20045;-49
2021/03/23 08:17:04;;;;;;;3.25;1.20;;;;;;;8.63;62.99;101284.00;5049359;28;20079;-51
2021/03/23 08:19:33;;;;;;;2.15;1.08;;;;;;;8.66;63.10;101291.63;5019960;28;20053;-53
2021/03/23 08:22:21;;;;;;;2.03;1.00;;;;;;;8.69;63.22;101292.94;5049646;28;20085;-50
2021/03/23 08:25:21;;;;;;;4.65;1.70;;;;;;;8.69;62.91;101302.03;5047030;28;20041;-49
2021/03/23 08:27:52;;;;;;;4.95;1.40;;;;;;;8.72;63.13;101289.56;5047061;28;20072;-56
2021/03/23 08:30:18;;;;;;;3.47;1.00;;;;;;;8.71;63.20;101297.00;5040087;28;20050;-54
2021/03/23 08:32:52;;;;;;;4.75;1.63;;;;;;;8.70;62.96;101303.69;5049574;28;20114;-50
2021/03/23 08:35:46;;;;;;;2.42;0.90;;;;;;;8.70;63.05;101298.16;5065587;28;20136;-52
2021/03/23 08:38:28;;;;;;;2.80;1.38;;;;;;;8.68;62.86;101283.88;5068083;28;20045;-49
2021/03/23 08:40:57;;;;;;;4.88;2.17;;;;;;;8.68;63.08;101297.69;5068061;28;20036;-49
2021/03/23 08:43:38;;;;;;;3.45;2.05;;;;;;;8.71;62.99;101290.72;5066313;28;20068;-52
2021/03/23 08:46:18;;;;;;;1.88;1.38;;;;;;;8.71;63.11;101285.97;5068871;28;20041;-54
2021/03/23 08:49:07;;;;;;;4.32;1.83;;;;;;;8.68;62.84;101289.41;5049391;28;20051;-54
2021/03/23 08:51:42;;;;;;;2.30;1.40;;;;;;;8.72;62.99;101287.63;5056286;28;20037;-49
2021/03/23 08:54:08;;;;;;;6.32;1.25;;;;;;;8.78;63.17;101291.88;5062913;28;20044;-50
2021/03/23 08:56:41;;;;;;;2.92;1.77;;;;;;;8.79;63.04;101285.19;5068331;28;20120;-49
2021/03/23 08:59:35;;;;;;;2.25;1.48;;;;;;;8.78;62.90;101286.34;5074121;28;20064;-53
2021/03/23 09:02:02;;;;;;;2.65;1.25;;;;;;;8.82;63.24;101281.78;5057075;28;20561;-51
2021/03/23 09:04:34;;;;;;;4.47;1.65;;;;;;;8.82;63.09;101268.00;5080248;28;20070;-51
2021/03/23 09:07:10;;;;;;;2.97;1.40;;;;;;;8.83;63.02;101264.09;5069237;28;20076;-52
2021/03/23 09:09:43;;;;;;;3.20;1.60;;;;;;;8.83;63.28;101264.09;5068437;28;20041;-51
2021/03/23 09:12:12;;;;;;;3.92;1.70;;;;;;;8.85;63.23;101252.72;5068103;28;20044;-53
2021/03/23 09:15:17;;;;;;;5.40;1.70;;;;;;;8.85;63.09;101261.81;5069076;28;20094;-51
2021/03/23 09:18:07;;;;;;;6.32;1.80;;;;;;;8.86;63.16;101263.47;5058118;28;20433;-52
2021/03/23 09:20:37;;;;;;;4.00;1.88;;;;;;;8.88;63.38;101250.16;5054578;28;20560;-53
2021/03/23 09:23:16;;;;;;;3.33;2.13;;;;;;;8.90;63.23;101245.09;5065119;28;20044;-48
2021/03/23 09:25:46;;;;;;;6.75;1.90;;;;;;;8.94;63.21;101243.34;5051063;28;20040;-50
2021/03/23 09:28:38;;;;;;;4.90;1.80;;;;;;;8.99;63.08;101239.59;5076370;28;20132;-50
2021/03/23 09:31:16;;;;;;;3.13;1.65;;;;;;;9.00;63.30;101224.69;5055185;28;20091;-51
2021/03/23 09:33:50;;;;;;;2.47;1.45;;;;;;;9.03;62.96;101232.28;5066282;28;20045;-49
2021/03/23 09:36:19;;;;;;;3.70;2.08;;;;;;;9.05;63.22;101225.31;5043475;28;20084;-50
2021/03/23 09:38:51;;;;;;;2.58;1.42;;;;;;;9.06;63.17;101223.38;5064165;28;20128;-53
2021/03/23 09:41:20;;;;;;;3.08;2.25;;;;;;;9.06;63.21;101223.38;5052375;28;20040;-48
2021/03/23 09:44:06;;;;;;;1.95;1.20;;;;;;;9.09;63.17;101223.53;5051222;28;20049;-52
2021/03/23 09:46:40;;;;;;;3.55;1.98;;;;;;;9.13;63.13;101220.94;5048345;28;20052;-50
2021/03/23 09:49:19;;;;;;;6.53;1.77;;;;;;;9.13;63.36;101229.25;5046896;28;20037;-53
2021/03/23 09:52:01;;;;;;;5.82;2.05;;;;;;;9.14;63.39;101237.19;5037157;28;20045;-53
2021/03/23 09:54:36;;;;;;;5.30;2.20;;;;;;;9.19;63.46;101219.63;5041157;28;20052;-52
2021/03/23 09:57:18;;;;;;;4.25;2.60;;;;;;;9.31;63.72;101222.59;5053797;28;20045;-51
2021/03/23 10:00:20;;;;;;;6.55;2.00;;;;;;;9.41;63.37;101221.44;5031670;28;20053;-49
2021/03/23 10:02:46;;;;;;;11.02;4.18;;;;;;;9.47;63.36;101214.59;5043074;28;20118;-53
2021/03/23 10:05:19;;;;;;;5.63;1.95;;;;;;;9.52;63.24;101208.91;5049167;28;20045;-52
2021/03/23 10:07:49;;;;;;;4.68;1.90;;;;;;;9.56;63.45;101215.41;5028470;28;20139;-52
2021/03/23 10:10:32;;;;;;;2.38;1.58;;;;;;;9.56;63.29;101218.16;5049633;28;20044;-49
2021/03/23 10:13:29;;;;;;;1.98;1.73;;;;;;;9.55;63.28;101214.59;5052377;28;20498;-49
2021/03/23 10:15:59;;;;;;;4.68;1.65;;;;;;;9.54;63.52;101212.97;5051082;28;20103;-51
2021/03/23 10:18:33;;;;;;;3.67;2.05;;;;;;;9.52;63.53;101215.25;5050441;28;20053;-53
2021/03/23 10:21:13;;;;;;;2.60;2.05;;;;;;;9.50;63.59;101208.44;5036905;28;20056;-52
2021/03/23 10:23:52;;;;;;;4.05;1.63;;;;;;;9.50;63.66;101216.72;5062282;28;20566;-50
2021/03/23 10:26:19;;;;;;;13.85;4.13;;;;;;;9.49;63.73;101204.03;5062916;28;20492;-52
2021/03/23 10:28:53;;;;;;;3.08;2.05;;;;;;;9.51;63.80;101208.09;5035131;28;20513;-49
2021/03/23 10:31:34;;;;;;;5.35;2.00;;;;;;;9.53;63.77;101202.25;5050663;28;20133;-53
2021/03/23 10:34:10;;;;;;;4.00;1.85;;;;;;;9.55;64.09;101197.19;5050163;28;20437;-53
2021/03/23 10:36:55;;;;;;;5.10;2.50;;;;;;;9.57;64.01;101197.69;5064882;28;20094;-51
2021/03/23 10:39:54;;;;;;;5.18;2.05;;;;;;;9.59;64.26;101200.91;5070734;28;20093;-51
2021/03/23 10:42:33;;;;;;;4.15;1.92;;;;;;;9.63;64.18;101196.38;5020891;28;20057;-50
2021/03/23 10:45:28;;;;;;;2.40;1.95;;;;;;;9.61;64.32;101191.16;5056942;28;20074;-48
2021/03/23 10:48:14;;;;;;;3.10;2.20;;;;;;;9.61;64.21;101202.22;5070913;28;20049;-49
2021/03/23 10:50:44;;;;;;;4.05;2.60;;;;;;;9.61;64.46;101190.38;5069474;28;20040;-50
2021/03/23 10:53:12;;;;;;;2.63;2.08;;;;;;;9.55;64.55;101186.97;5069292;28;20521;-49
2021/03/23 10:55:45;;;;;;;8.05;2.95;;;;;;;9.50;64.93;101192.66;5066499;28;20453;-49
2021/03/23 10:58:24;;;;;;;8.85;3.50;;;;;;;9.47;65.24;101187.78;5069974;28;20591;-52
2021/03/23 11:01:11;;;;;;;2.40;2.00;;;;;;;9.44;65.37;101191.19;5071130;28;20049;-54
2021/03/23 11:03:41;;;;;;;4.70;2.20;;;;;;;9.42;65.38;101184.38;5066517;28;20053;-50
2021/03/23 11:06:27;;;;;;;7.13;2.45;;;;;;;9.40;66.31;101187.44;5069623;28;20044;-50
2021/03/23 11:08:57;;;;;;;4.55;1.95;;;;;;;9.43;65.80;101189.56;5069078;28;20087;-48
2021/03/23 11:11:25;;;;;;;4.28;1.98;;;;;;;9.48;65.71;101172.00;5070427;28;20052;-50
2021/03/23 11:13:52;;;;;;;3.78;1.88;;;;;;;9.56;65.90;101160.09;5069634;28;20072;-52
2021/03/23 11:16:24;;;;;;;5.40;1.85;;;;;;;9.62;65.81;101147.75;5050393;28;20087;-49
2021/03/23 11:18:50;;;;;;;3.65;1.92;;;;;;;9.70;65.71;101166.28;5067861;28;20745;-48
2021/03/23 11:21:18;;;;;;;7.75;2.17;;;;;;;9.77;65.75;101144.44;5069285;28;20386;-49
2021/03/23 11:24:06;;;;;;;4.07;2.13;;;;;;;9.90;65.70;101126.81;5051276;28;20090;-50
2021/03/23 11:26:33;;;;;;;4.30;1.35;;;;;;;10.08;65.24;101125.63;5069552;28;20440;-49
2021/03/23 11:29:03;;;;;;;2.58;1.42;;;;;;;10.28;65.12;101127.66;5070178;28;20095;-52
2021/03/23 11:31:33;;;;;;;3.90;1.70;;;;;;;10.55;65.08;101122.78;5069520;28;20075;-47
2021/03/23 11:34:01;;;;;;;4.20;1.83;;;;;;;10.67;64.75;101103.50;5068692;28;20072;-51
2021/03/23 11:36:28;;;;;;;2.78;0.93;;;;;;;10.70;64.26;101083.41;5069413;28;20102;-51
2021/03/23 11:38:56;;;;;;;4.28;1.20;;;;;;;10.68;64.06;101086.53;5068296;28;20048;-52
2021/03/23 11:41:40;;;;;;;3.50;1.73;;;;;;;10.67;63.01;101100.75;5069371;28;20040;-54
2021/03/23 11:44:20;;;;;;;2.60;1.40;;;;;;;10.79;63.54;101095.25;5069546;28;20118;-50
2021/03/23 11:47:08;;;;;;;1.73;1.42;;;;;;;10.86;62.56;101087.19;5067612;28;20107;-51
2021/03/23 11:50:06;;;;;;;5.15;1.55;;;;;;;10.86;61.79;101082.47;5060051;28;20067;-53
2021/03/23 11:52:33;;;;;;;1.92;1.00;;;;;;;11.10;63.14;101089.28;5046115;28;20056;-50
2021/03/23 11:55:03;;;;;;;2.33;0.85;;;;;;;11.43;62.93;101079.81;5069991;28;20127;-52
2021/03/23 11:57:30;;;;;;;1.15;0.57;;;;;;;11.81;62.50;101082.31;5051573;28;20116;-48
2021/03/23 11:59:57;;;;;;;1.58;0.60;;;;;;;12.14;61.91;101087.78;5068904;28;20067;-52
2021/03/23 12:02:24;;;;;;;1.33;0.65;;;;;;;12.33;61.16;101073.31;5069427;28;20059;-52